VOE97EA LFQQ-LFKJ
Flight info
| Callsign | VOE97EA |
|---|---|
| Flight time | N/A |
| Altitude | 29000 |
| Route | VERMA T372 LESDO DCT KOVIN DCT DUCRA UM728 KETEX/N0443F350 DCT KOTIS DCT KUKOR DCT UTUVA DCT TITVA DCT NOQAS DCT OTROT DCT RETNO DCT KOLON DCT OMARD M623 VAREK |
| Aircraft | A319/M-SDE3FGHIRWY/LB1 |
Departure
| Time | 2026-04-28 17:55 |
|---|---|
| Airport | Lille Airport (LFQQ) |
Arrival
| Time | N/A |
|---|---|
| Airport | Ajaccio Napoléon Bonaparte airport (LFKJ) |
| Time | Latitude | Longitude | Altitude | Speed | Heading |
|---|---|---|---|---|---|
| 2026-04-28 17:36 | 50.57124 | 3.10824 | 152 ft | 0 kts | 347° |
| 2026-04-28 17:47 | 50.57125 | 3.10824 | 151 ft | 1 kts | 347° |
| 2026-04-28 17:47 | 50.57133 | 3.10828 | 151 ft | 1 kts | 24° |
| 2026-04-28 17:47 | 50.57133 | 3.10836 | 151 ft | 0 kts | 67° |
| 2026-04-28 17:47 | 50.57132 | 3.10840 | 151 ft | 1 kts | 93° |
| 2026-04-28 17:48 | 50.57102 | 3.10857 | 151 ft | 8 kts | 173° |
| 2026-04-28 17:48 | 50.57071 | 3.10799 | 151 ft | 8 kts | 257° |
| 2026-04-28 17:48 | 50.57042 | 3.10706 | 151 ft | 11 kts | 216° |
| 2026-04-28 17:48 | 50.56962 | 3.10711 | 151 ft | 13 kts | 167° |
| 2026-04-28 17:49 | 50.56875 | 3.10736 | 151 ft | 13 kts | 181° |
| 2026-04-28 17:49 | 50.56818 | 3.10635 | 151 ft | 14 kts | 256° |
| 2026-04-28 17:49 | 50.56796 | 3.10482 | 151 ft | 15 kts | 257° |
| 2026-04-28 17:49 | 50.56774 | 3.10322 | 151 ft | 16 kts | 257° |
| 2026-04-28 17:50 | 50.56749 | 3.10142 | 152 ft | 19 kts | 257° |
| 2026-04-28 17:50 | 50.56719 | 3.09931 | 152 ft | 21 kts | 257° |
| 2026-04-28 17:50 | 50.56685 | 3.09694 | 152 ft | 23 kts | 257° |
| 2026-04-28 17:50 | 50.56650 | 3.09449 | 152 ft | 23 kts | 257° |
| 2026-04-28 17:51 | 50.56615 | 3.09200 | 152 ft | 24 kts | 257° |
| 2026-04-28 17:51 | 50.56532 | 3.09059 | 151 ft | 17 kts | 174° |
| 2026-04-28 17:51 | 50.56414 | 3.09068 | 153 ft | 17 kts | 212° |
| 2026-04-28 17:51 | 50.56373 | 3.08897 | 152 ft | 18 kts | 258° |
| 2026-04-28 17:52 | 50.56346 | 3.08706 | 153 ft | 18 kts | 257° |
| 2026-04-28 17:52 | 50.56331 | 3.08508 | 152 ft | 19 kts | 286° |
| 2026-04-28 17:52 | 50.56300 | 3.08349 | 152 ft | 9 kts | 141° |
| 2026-04-28 17:53 | 50.56306 | 3.08429 | 152 ft | 0 kts | 76° |
| 2026-04-28 17:53 | 50.56306 | 3.08431 | 152 ft | 0 kts | 77° |
| 2026-04-28 17:53 | 50.56307 | 3.08436 | 152 ft | 1 kts | 77° |
| 2026-04-28 17:53 | 50.56307 | 3.08438 | 152 ft | 0 kts | 76° |
| 2026-04-28 17:54 | 50.56314 | 3.08481 | 152 ft | 24 kts | 77° |
| 2026-04-28 17:54 | 50.56414 | 3.09184 | 152 ft | 104 kts | 77° |
| 2026-04-28 17:54 | 50.56613 | 3.10595 | 156 ft | 161 kts | 78° |
| 2026-04-28 17:54 | 50.56874 | 3.12393 | 668 ft | 172 kts | 78° |
| 2026-04-28 17:55 | 50.57074 | 3.14263 | 1406 ft | 174 kts | 93° |
| 2026-04-28 17:55 | 50.56536 | 3.15919 | 1947 ft | 184 kts | 141° |
| 2026-04-28 17:55 | 50.55323 | 3.16838 | 2334 ft | 207 kts | 160° |
| 2026-04-28 17:55 | 50.53934 | 3.17829 | 2817 ft | 232 kts | 151° |
| 2026-04-28 17:56 | 50.52491 | 3.19242 | 3379 ft | 256 kts | 147° |
| 2026-04-28 17:56 | 50.50992 | 3.20858 | 4254 ft | 265 kts | 146° |
| 2026-04-28 17:56 | 50.49371 | 3.22278 | 5217 ft | 270 kts | 163° |
| 2026-04-28 17:56 | 50.47504 | 3.22660 | 6196 ft | 273 kts | 178° |
| 2026-04-28 17:57 | 50.45593 | 3.22769 | 7189 ft | 276 kts | 179° |
| 2026-04-28 17:57 | 50.43657 | 3.22833 | 8142 ft | 280 kts | 179° |
| 2026-04-28 17:57 | 50.41691 | 3.22881 | 9072 ft | 284 kts | 179° |
| 2026-04-28 17:57 | 50.39703 | 3.22931 | 9975 ft | 288 kts | 179° |
| 2026-04-28 17:58 | 50.37640 | 3.22988 | 10532 ft | 307 kts | 179° |
| 2026-04-28 17:58 | 50.35463 | 3.23056 | 10977 ft | 325 kts | 179° |
| 2026-04-28 17:58 | 50.33173 | 3.23138 | 11722 ft | 332 kts | 179° |
| 2026-04-28 17:58 | 50.30832 | 3.23224 | 12541 ft | 337 kts | 179° |
| 2026-04-28 17:59 | 50.28492 | 3.23310 | 13329 ft | 341 kts | 179° |
| 2026-04-28 17:59 | 50.26111 | 3.23397 | 14098 ft | 345 kts | 179° |
| 2026-04-28 17:59 | 50.23696 | 3.23487 | 14845 ft | 349 kts | 179° |